sensor_id;sensor_type;location;lat;lon;timestamp;P1;durP1;ratioP1;P2;durP2;ratioP2
4001;SDS011;2015;48.670;9.060;2024-01-27T00:00:41;10.00;;;6.20;;
4001;SDS011;2015;48.670;9.060;2024-01-27T00:03:13;23.50;;;11.30;;
4001;SDS011;2015;48.670;9.060;2024-01-27T00:05:45;14.93;;;8.67;;
4001;SDS011;2015;48.670;9.060;2024-01-27T00:08:17;7.77;;;6.70;;
4001;SDS011;2015;48.670;9.060;2024-01-27T00:10:48;6.03;;;4.53;;
4001;SDS011;2015;48.670;9.060;2024-01-27T00:13:20;19.40;;;9.57;;
4001;SDS011;2015;48.670;9.060;2024-01-27T00:15:52;6.53;;;3.90;;
4001;SDS011;2015;48.670;9.060;2024-01-27T00:18:25;10.53;;;7.17;;
4001;SDS011;2015;48.670;9.060;2024-01-27T00:20:57;6.13;;;4.63;;
4001;SDS011;2015;48.670;9.060;2024-01-27T00:23:29;3.70;;;3.50;;
4001;SDS011;2015;48.670;9.060;2024-01-27T00:26:01;4.87;;;4.33;;
4001;SDS011;2015;48.670;9.060;2024-01-27T00:28:33;4.70;;;3.50;;
4001;SDS011;2015;48.670;9.060;2024-01-27T00:31:04;6.40;;;4.90;;
4001;SDS011;2015;48.670;9.060;2024-01-27T00:33:36;4.93;;;4.57;;
4001;SDS011;2015;48.670;9.060;2024-01-27T00:36:08;4.70;;;4.47;;
4001;SDS011;2015;48.670;9.060;2024-01-27T00:38:40;10.73;;;4.70;;
4001;SDS011;2015;48.670;9.060;2024-01-27T00:41:17;6.57;;;3.80;;
4001;SDS011;2015;48.670;9.060;2024-01-27T00:43:50;4.30;;;2.93;;
4001;SDS011;2015;48.670;9.060;2024-01-27T00:46:22;3.50;;;3.00;;
4001;SDS011;2015;48.670;9.060;2024-01-27T00:48:54;4.40;;;3.77;;
4001;SDS011;2015;48.670;9.060;2024-01-27T00:51:26;7.90;;;5.10;;
4001;SDS011;2015;48.670;9.060;2024-01-27T00:53:58;3.70;;;3.50;;
4001;SDS011;2015;48.670;9.060;2024-01-27T00:56:30;3.70;;;3.50;;
4001;SDS011;2015;48.670;9.060;2024-01-27T00:59:01;3.10;;;2.90;;
4001;SDS011;2015;48.670;9.060;2024-01-27T01:01:33;5.90;;;3.80;;
4001;SDS011;2015;48.670;9.060;2024-01-27T01:04:06;6.87;;;4.17;;
4001;SDS011;2015;48.670;9.060;2024-01-27T01:06:39;3.07;;;2.87;;
4001;SDS011;2015;48.670;9.060;2024-01-27T01:09:11;3.67;;;3.03;;
4001;SDS011;2015;48.670;9.060;2024-01-27T01:11:43;3.27;;;3.07;;
4001;SDS011;2015;48.670;9.060;2024-01-27T01:14:15;4.20;;;3.67;;
4001;SDS011;2015;48.670;9.060;2024-01-27T01:16:47;9.80;;;5.20;;
4001;SDS011;2015;48.670;9.060;2024-01-27T01:19:19;6.60;;;4.00;;
4001;SDS011;2015;48.670;9.060;2024-01-27T01:21:51;43.13;;;19.00;;
4001;SDS011;2015;48.670;9.060;2024-01-27T01:24:22;14.90;;;11.73;;
4001;SDS011;2015;48.670;9.060;2024-01-27T01:26:54;10.00;;;5.60;;
4001;SDS011;2015;48.670;9.060;2024-01-27T01:29:26;7.73;;;6.73;;
4001;SDS011;2015;48.670;9.060;2024-01-27T01:31:57;11.50;;;6.07;;
4001;SDS011;2015;48.670;9.060;2024-01-27T01:34:29;9.40;;;6.50;;
4001;SDS011;2015;48.670;9.060;2024-01-27T01:37:01;6.33;;;5.70;;
4001;SDS011;2015;48.670;9.060;2024-01-27T01:39:33;7.73;;;6.33;;
4001;SDS011;2015;48.670;9.060;2024-01-27T01:42:05;6.00;;;5.40;;
4001;SDS011;2015;48.670;9.060;2024-01-27T01:44:37;5.47;;;4.93;;
4001;SDS011;2015;48.670;9.060;2024-01-27T01:47:09;12.40;;;6.77;;
4001;SDS011;2015;48.670;9.060;2024-01-27T01:49:40;3.30;;;3.10;;
4001;SDS011;2015;48.670;9.060;2024-01-27T01:52:13;6.60;;;3.57;;
4001;SDS011;2015;48.670;9.060;2024-01-27T01:54:51;3.83;;;3.60;;
4001;SDS011;2015;48.670;9.060;2024-01-27T01:57:22;3.03;;;2.83;;
4001;SDS011;2015;48.670;9.060;2024-01-27T01:59:54;6.00;;;3.90;;
4001;SDS011;2015;48.670;9.060;2024-01-27T02:02:26;5.30;;;4.70;;
4001;SDS011;2015;48.670;9.060;2024-01-27T02:04:57;6.47;;;5.97;;
4001;SDS011;2015;48.670;9.060;2024-01-27T02:07:29;4.27;;;3.70;;
4001;SDS011;2015;48.670;9.060;2024-01-27T02:10:02;4.20;;;3.00;;
4001;SDS011;2015;48.670;9.060;2024-01-27T02:12:34;5.13;;;3.80;;
4001;SDS011;2015;48.670;9.060;2024-01-27T02:15:08;3.97;;;3.55;;
4001;SDS011;2015;48.670;9.060;2024-01-27T02:17:42;4.07;;;3.67;;
4001;SDS011;2015;48.670;9.060;2024-01-27T02:20:14;3.50;;;3.30;;
4001;SDS011;2015;48.670;9.060;2024-01-27T02:22:46;4.40;;;4.00;;
4001;SDS011;2015;48.670;9.060;2024-01-27T02:25:17;7.20;;;3.83;;
4001;SDS011;2015;48.670;9.060;2024-01-27T02:27:49;4.37;;;3.90;;
4001;SDS011;2015;48.670;9.060;2024-01-27T02:30:21;3.53;;;3.33;;
4001;SDS011;2015;48.670;9.060;2024-01-27T02:32:53;3.93;;;3.47;;
4001;SDS011;2015;48.670;9.060;2024-01-27T02:35:24;3.13;;;3.03;;
4001;SDS011;2015;48.670;9.060;2024-01-27T02:37:56;5.17;;;3.70;;
4001;SDS011;2015;48.670;9.060;2024-01-27T02:40:28;3.30;;;3.10;;
4001;SDS011;2015;48.670;9.060;2024-01-27T02:43:00;7.80;;;3.37;;
4001;SDS011;2015;48.670;9.060;2024-01-27T02:45:31;4.73;;;3.50;;
4001;SDS011;2015;48.670;9.060;2024-01-27T02:48:03;7.18;;;3.60;;
4001;SDS011;2015;48.670;9.060;2024-01-27T02:50:35;5.03;;;4.53;;
4001;SDS011;2015;48.670;9.060;2024-01-27T02:53:07;4.00;;;3.80;;
4001;SDS011;2015;48.670;9.060;2024-01-27T02:55:39;4.17;;;3.80;;
4001;SDS011;2015;48.670;9.060;2024-01-27T02:58:10;5.37;;;3.50;;
4001;SDS011;2015;48.670;9.060;2024-01-27T03:00:43;8.10;;;4.77;;
4001;SDS011;2015;48.670;9.060;2024-01-27T03:03:14;3.63;;;3.50;;
4001;SDS011;2015;48.670;9.060;2024-01-27T03:05:46;3.53;;;3.23;;
4001;SDS011;2015;48.670;9.060;2024-01-27T03:08:18;5.78;;;3.63;;
4001;SDS011;2015;48.670;9.060;2024-01-27T03:10:50;6.20;;;4.27;;
4001;SDS011;2015;48.670;9.060;2024-01-27T03:13:22;4.80;;;3.40;;
4001;SDS011;2015;48.670;9.060;2024-01-27T03:15:53;4.10;;;2.90;;
4001;SDS011;2015;48.670;9.060;2024-01-27T03:18:25;5.13;;;4.20;;
4001;SDS011;2015;48.670;9.060;2024-01-27T03:20:57;4.00;;;3.70;;
4001;SDS011;2015;48.670;9.060;2024-01-27T03:23:29;2.90;;;2.77;;
4001;SDS011;2015;48.670;9.060;2024-01-27T03:26:01;3.80;;;2.87;;
4001;SDS011;2015;48.670;9.060;2024-01-27T03:28:35;4.20;;;3.80;;
4001;SDS011;2015;48.670;9.060;2024-01-27T03:31:06;3.93;;;3.73;;
4001;SDS011;2015;48.670;9.060;2024-01-27T03:33:38;3.70;;;3.40;;
4001;SDS011;2015;48.670;9.060;2024-01-27T03:36:10;4.40;;;4.00;;
4001;SDS011;2015;48.670;9.060;2024-01-27T03:38:43;4.13;;;3.77;;
4001;SDS011;2015;48.670;9.060;2024-01-27T03:41:15;4.03;;;2.87;;
4001;SDS011;2015;48.670;9.060;2024-01-27T03:43:46;3.70;;;3.03;;
4001;SDS011;2015;48.670;9.060;2024-01-27T03:46:18;5.07;;;2.97;;
4001;SDS011;2015;48.670;9.060;2024-01-27T03:48:50;4.67;;;2.83;;
4001;SDS011;2015;48.670;9.060;2024-01-27T03:51:22;2.80;;;2.60;;
4001;SDS011;2015;48.670;9.060;2024-01-27T03:53:54;2.73;;;2.60;;
4001;SDS011;2015;48.670;9.060;2024-01-27T03:56:26;9.57;;;4.00;;
4001;SDS011;2015;48.670;9.060;2024-01-27T03:58:58;4.17;;;3.87;;
4001;SDS011;2015;48.670;9.060;2024-01-27T04:01:29;3.13;;;2.77;;
4001;SDS011;2015;48.670;9.060;2024-01-27T04:04:01;5.00;;;4.20;;
4001;SDS011;2015;48.670;9.060;2024-01-27T04:06:37;3.77;;;3.47;;
4001;SDS011;2015;48.670;9.060;2024-01-27T04:09:09;2.83;;;2.63;;
4001;SDS011;2015;48.670;9.060;2024-01-27T04:11:41;3.10;;;2.90;;
4001;SDS011;2015;48.670;9.060;2024-01-27T04:14:13;3.03;;;2.87;;
4001;SDS011;2015;48.670;9.060;2024-01-27T04:16:45;4.15;;;3.38;;
4001;SDS011;2015;48.670;9.060;2024-01-27T04:19:17;4.67;;;3.43;;
4001;SDS011;2015;48.670;9.060;2024-01-27T04:21:49;6.13;;;3.10;;
4001;SDS011;2015;48.670;9.060;2024-01-27T04:24:20;3.67;;;3.47;;
4001;SDS011;2015;48.670;9.060;2024-01-27T04:26:52;4.43;;;4.10;;
4001;SDS011;2015;48.670;9.060;2024-01-27T04:29:24;6.43;;;3.70;;
4001;SDS011;2015;48.670;9.060;2024-01-27T04:31:55;5.23;;;4.07;;
4001;SDS011;2015;48.670;9.060;2024-01-27T04:34:27;3.77;;;3.47;;
4001;SDS011;2015;48.670;9.060;2024-01-27T04:36:59;6.13;;;4.27;;
4001;SDS011;2015;48.670;9.060;2024-01-27T04:39:32;3.77;;;3.37;;
4001;SDS011;2015;48.670;9.060;2024-01-27T04:42:04;4.03;;;3.83;;
4001;SDS011;2015;48.670;9.060;2024-01-27T04:44:39;3.90;;;3.60;;
4001;SDS011;2015;48.670;9.060;2024-01-27T04:47:12;3.00;;;2.80;;
4001;SDS011;2015;48.670;9.060;2024-01-27T04:49:44;14.35;;;4.05;;
4001;SDS011;2015;48.670;9.060;2024-01-27T04:52:16;5.93;;;3.63;;
4001;SDS011;2015;48.670;9.060;2024-01-27T04:54:47;3.10;;;2.90;;
4001;SDS011;2015;48.670;9.060;2024-01-27T04:57:19;3.50;;;3.27;;
4001;SDS011;2015;48.670;9.060;2024-01-27T04:59:51;3.20;;;3.00;;
4001;SDS011;2015;48.670;9.060;2024-01-27T05:02:23;4.40;;;3.53;;
4001;SDS011;2015;48.670;9.060;2024-01-27T05:04:54;4.17;;;3.10;;
4001;SDS011;2015;48.670;9.060;2024-01-27T05:07:26;5.90;;;3.40;;
4001;SDS011;2015;48.670;9.060;2024-01-27T05:09:58;7.43;;;4.17;;
4001;SDS011;2015;48.670;9.060;2024-01-27T05:12:29;3.93;;;3.67;;
4001;SDS011;2015;48.670;9.060;2024-01-27T05:15:02;4.63;;;3.67;;
4001;SDS011;2015;48.670;9.060;2024-01-27T05:17:34;2.97;;;2.77;;
4001;SDS011;2015;48.670;9.060;2024-01-27T05:20:06;4.00;;;3.33;;
4001;SDS011;2015;48.670;9.060;2024-01-27T05:22:38;4.67;;;3.17;;
4001;SDS011;2015;48.670;9.060;2024-01-27T05:25:10;5.50;;;3.00;;
4001;SDS011;2015;48.670;9.060;2024-01-27T05:27:42;6.37;;;3.73;;
4001;SDS011;2015;48.670;9.060;2024-01-27T05:30:15;6.17;;;3.07;;
4001;SDS011;2015;48.670;9.060;2024-01-27T05:32:47;3.47;;;3.27;;
4001;SDS011;2015;48.670;9.060;2024-01-27T05:35:19;5.13;;;3.97;;
4001;SDS011;2015;48.670;9.060;2024-01-27T05:37:50;8.90;;;4.13;;
4001;SDS011;2015;48.670;9.060;2024-01-27T05:40:22;4.00;;;3.33;;
4001;SDS011;2015;48.670;9.060;2024-01-27T05:42:54;5.17;;;3.50;;
4001;SDS011;2015;48.670;9.060;2024-01-27T05:45:26;3.93;;;3.43;;
4001;SDS011;2015;48.670;9.060;2024-01-27T05:47:58;3.20;;;3.00;;
4001;SDS011;2015;48.670;9.060;2024-01-27T05:50:29;20.37;;;3.97;;
4001;SDS011;2015;48.670;9.060;2024-01-27T05:53:03;5.40;;;2.87;;
4001;SDS011;2015;48.670;9.060;2024-01-27T05:55:35;4.53;;;3.37;;
4001;SDS011;2015;48.670;9.060;2024-01-27T05:58:06;3.40;;;3.20;;
4001;SDS011;2015;48.670;9.060;2024-01-27T06:00:38;6.20;;;4.80;;
4001;SDS011;2015;48.670;9.060;2024-01-27T06:03:10;4.50;;;3.07;;
4001;SDS011;2015;48.670;9.060;2024-01-27T06:05:42;5.00;;;2.53;;
4001;SDS011;2015;48.670;9.060;2024-01-27T06:08:14;3.53;;;3.23;;
4001;SDS011;2015;48.670;9.060;2024-01-27T06:10:46;5.68;;;3.42;;
4001;SDS011;2015;48.670;9.060;2024-01-27T06:13:18;2.90;;;2.70;;
4001;SDS011;2015;48.670;9.060;2024-01-27T06:15:49;7.30;;;2.90;;
4001;SDS011;2015;48.670;9.060;2024-01-27T06:18:22;3.13;;;2.83;;
4001;SDS011;2015;48.670;9.060;2024-01-27T06:20:55;3.77;;;3.43;;
4001;SDS011;2015;48.670;9.060;2024-01-27T06:23:27;3.63;;;3.43;;
4001;SDS011;2015;48.670;9.060;2024-01-27T06:25:59;4.43;;;3.60;;
4001;SDS011;2015;48.670;9.060;2024-01-27T06:28:30;3.50;;;3.30;;
4001;SDS011;2015;48.670;9.060;2024-01-27T06:31:03;4.83;;;4.43;;
4001;SDS011;2015;48.670;9.060;2024-01-27T06:33:35;3.20;;;3.00;;
4001;SDS011;2015;48.670;9.060;2024-01-27T06:36:07;5.07;;;3.40;;
4001;SDS011;2015;48.670;9.060;2024-01-27T06:38:40;3.50;;;3.30;;
4001;SDS011;2015;48.670;9.060;2024-01-27T06:41:12;4.47;;;3.63;;
4001;SDS011;2015;48.670;9.060;2024-01-27T06:43:44;2.47;;;2.27;;
4001;SDS011;2015;48.670;9.060;2024-01-27T06:46:15;3.83;;;3.40;;
4001;SDS011;2015;48.670;9.060;2024-01-27T06:48:47;3.40;;;3.10;;
4001;SDS011;2015;48.670;9.060;2024-01-27T06:51:19;3.63;;;3.33;;
4001;SDS011;2015;48.670;9.060;2024-01-27T06:53:51;14.73;;;2.47;;
4001;SDS011;2015;48.670;9.060;2024-01-27T06:56:22;2.77;;;2.67;;
4001;SDS011;2015;48.670;9.060;2024-01-27T06:58:54;4.50;;;4.10;;
4001;SDS011;2015;48.670;9.060;2024-01-27T07:01:26;4.13;;;3.77;;
4001;SDS011;2015;48.670;9.060;2024-01-27T07:03:58;3.70;;;3.47;;
4001;SDS011;2015;48.670;9.060;2024-01-27T07:06:29;4.28;;;3.97;;
4001;SDS011;2015;48.670;9.060;2024-01-27T07:09:01;5.13;;;4.77;;
4001;SDS011;2015;48.670;9.060;2024-01-27T07:11:33;9.03;;;4.00;;
4001;SDS011;2015;48.670;9.060;2024-01-27T07:14:05;5.57;;;4.60;;
4001;SDS011;2015;48.670;9.060;2024-01-27T07:16:37;4.13;;;3.93;;
4001;SDS011;2015;48.670;9.060;2024-01-27T07:19:09;6.82;;;4.13;;
4001;SDS011;2015;48.670;9.060;2024-01-27T07:21:42;7.70;;;4.90;;
4001;SDS011;2015;48.670;9.060;2024-01-27T07:24:14;10.73;;;5.70;;
4001;SDS011;2015;48.670;9.060;2024-01-27T07:26:46;4.00;;;3.70;;
4001;SDS011;2015;48.670;9.060;2024-01-27T07:29:18;4.57;;;4.27;;
4001;SDS011;2015;48.670;9.060;2024-01-27T07:31:51;4.53;;;3.97;;
4001;SDS011;2015;48.670;9.060;2024-01-27T07:34:22;10.03;;;4.87;;
4001;SDS011;2015;48.670;9.060;2024-01-27T07:36:54;3.90;;;3.60;;
4001;SDS011;2015;48.670;9.060;2024-01-27T07:39:26;5.47;;;3.67;;
4001;SDS011;2015;48.670;9.060;2024-01-27T07:41:58;7.40;;;4.30;;
4001;SDS011;2015;48.670;9.060;2024-01-27T07:44:30;3.17;;;2.87;;
4001;SDS011;2015;48.670;9.060;2024-01-27T07:47:02;2.97;;;2.87;;
4001;SDS011;2015;48.670;9.060;2024-01-27T07:49:33;4.47;;;4.17;;
4001;SDS011;2015;48.670;9.060;2024-01-27T07:52:05;3.40;;;3.20;;
4001;SDS011;2015;48.670;9.060;2024-01-27T07:54:37;4.50;;;4.13;;
4001;SDS011;2015;48.670;9.060;2024-01-27T07:57:11;5.33;;;2.93;;
4001;SDS011;2015;48.670;9.060;2024-01-27T07:59:43;3.90;;;2.90;;
4001;SDS011;2015;48.670;9.060;2024-01-27T08:02:15;5.50;;;4.80;;
4001;SDS011;2015;48.670;9.060;2024-01-27T08:04:47;16.63;;;10.47;;
4001;SDS011;2015;48.670;9.060;2024-01-27T08:07:19;14.03;;;11.27;;
4001;SDS011;2015;48.670;9.060;2024-01-27T08:09:50;15.43;;;12.53;;
4001;SDS011;2015;48.670;9.060;2024-01-27T08:12:22;11.27;;;10.00;;
4001;SDS011;2015;48.670;9.060;2024-01-27T08:14:54;21.15;;;12.82;;
4001;SDS011;2015;48.670;9.060;2024-01-27T08:17:26;13.23;;;8.00;;
4001;SDS011;2015;48.670;9.060;2024-01-27T08:19:58;7.47;;;6.70;;
4001;SDS011;2015;48.670;9.060;2024-01-27T08:22:30;9.30;;;5.10;;
4001;SDS011;2015;48.670;9.060;2024-01-27T08:25:02;11.63;;;6.80;;
4001;SDS011;2015;48.670;9.060;2024-01-27T08:27:34;16.10;;;11.27;;
4001;SDS011;2015;48.670;9.060;2024-01-27T08:30:06;24.87;;;14.67;;
4001;SDS011;2015;48.670;9.060;2024-01-27T08:32:38;16.23;;;9.10;;
4001;SDS011;2015;48.670;9.060;2024-01-27T08:35:10;10.57;;;9.47;;
4001;SDS011;2015;48.670;9.060;2024-01-27T08:37:42;10.10;;;7.67;;
4001;SDS011;2015;48.670;9.060;2024-01-27T08:40:14;13.63;;;8.90;;
4001;SDS011;2015;48.670;9.060;2024-01-27T08:42:48;8.53;;;7.40;;
4001;SDS011;2015;48.670;9.060;2024-01-27T08:45:20;15.10;;;10.83;;
4001;SDS011;2015;48.670;9.060;2024-01-27T08:47:51;14.73;;;11.77;;
4001;SDS011;2015;48.670;9.060;2024-01-27T08:50:23;14.50;;;12.63;;
4001;SDS011;2015;48.670;9.060;2024-01-27T08:52:55;15.23;;;9.70;;
4001;SDS011;2015;48.670;9.060;2024-01-27T08:55:27;11.87;;;9.50;;
4001;SDS011;2015;48.670;9.060;2024-01-27T08:57:59;9.90;;;9.00;;
4001;SDS011;2015;48.670;9.060;2024-01-27T09:00:31;21.17;;;9.02;;
4001;SDS011;2015;48.670;9.060;2024-01-27T09:03:03;8.77;;;7.80;;
4001;SDS011;2015;48.670;9.060;2024-01-27T09:05:35;8.00;;;7.30;;
4001;SDS011;2015;48.670;9.060;2024-01-27T09:08:07;14.80;;;8.77;;
4001;SDS011;2015;48.670;9.060;2024-01-27T09:10:39;6.50;;;5.77;;
4001;SDS011;2015;48.670;9.060;2024-01-27T09:13:10;12.10;;;6.10;;
4001;SDS011;2015;48.670;9.060;2024-01-27T09:15:42;10.03;;;7.60;;
4001;SDS011;2015;48.670;9.060;2024-01-27T09:18:14;9.03;;;6.73;;
4001;SDS011;2015;48.670;9.060;2024-01-27T09:20:47;12.23;;;7.55;;
4001;SDS011;2015;48.670;9.060;2024-01-27T09:23:19;9.23;;;7.47;;
4001;SDS011;2015;48.670;9.060;2024-01-27T09:25:51;6.67;;;6.13;;
4001;SDS011;2015;48.670;9.060;2024-01-27T09:28:22;9.60;;;6.82;;
4001;SDS011;2015;48.670;9.060;2024-01-27T09:30:55;7.40;;;6.70;;
4001;SDS011;2015;48.670;9.060;2024-01-27T09:33:26;10.20;;;8.70;;
4001;SDS011;2015;48.670;9.060;2024-01-27T09:35:58;11.80;;;8.20;;
4001;SDS011;2015;48.670;9.060;2024-01-27T09:38:30;6.87;;;6.17;;
4001;SDS011;2015;48.670;9.060;2024-01-27T09:41:02;16.70;;;8.27;;
4001;SDS011;2015;48.670;9.060;2024-01-27T09:43:34;7.63;;;6.87;;
4001;SDS011;2015;48.670;9.060;2024-01-27T09:46:07;8.80;;;4.73;;
4001;SDS011;2015;48.670;9.060;2024-01-27T09:48:40;6.80;;;6.30;;
4001;SDS011;2015;48.670;9.060;2024-01-27T09:51:12;7.10;;;5.80;;
4001;SDS011;2015;48.670;9.060;2024-01-27T09:53:44;7.40;;;4.80;;
4001;SDS011;2015;48.670;9.060;2024-01-27T09:56:16;5.50;;;4.63;;
4001;SDS011;2015;48.670;9.060;2024-01-27T09:58:50;5.60;;;4.80;;
4001;SDS011;2015;48.670;9.060;2024-01-27T10:01:22;6.23;;;5.80;;
4001;SDS011;2015;48.670;9.060;2024-01-27T10:03:56;5.87;;;5.47;;
4001;SDS011;2015;48.670;9.060;2024-01-27T10:06:29;11.63;;;5.67;;
4001;SDS011;2015;48.670;9.060;2024-01-27T10:09:01;8.43;;;5.70;;
4001;SDS011;2015;48.670;9.060;2024-01-27T10:11:33;4.73;;;4.33;;
4001;SDS011;2015;48.670;9.060;2024-01-27T10:14:07;4.70;;;4.30;;
4001;SDS011;2015;48.670;9.060;2024-01-27T10:16:40;5.80;;;4.27;;
4001;SDS011;2015;48.670;9.060;2024-01-27T10:19:16;5.80;;;3.80;;
4001;SDS011;2015;48.670;9.060;2024-01-27T10:21:59;4.37;;;3.90;;
4001;SDS011;2015;48.670;9.060;2024-01-27T10:24:32;8.77;;;5.07;;
4001;SDS011;2015;48.670;9.060;2024-01-27T10:27:05;6.70;;;4.60;;
4001;SDS011;2015;48.670;9.060;2024-01-27T10:29:37;5.80;;;5.30;;
4001;SDS011;2015;48.670;9.060;2024-01-27T10:32:09;5.57;;;4.90;;
4001;SDS011;2015;48.670;9.060;2024-01-27T10:34:41;8.43;;;4.53;;
4001;SDS011;2015;48.670;9.060;2024-01-27T10:37:13;12.70;;;5.17;;
4001;SDS011;2015;48.670;9.060;2024-01-27T10:39:45;7.60;;;4.97;;
4001;SDS011;2015;48.670;9.060;2024-01-27T10:42:18;5.80;;;5.20;;
4001;SDS011;2015;48.670;9.060;2024-01-27T10:44:51;7.53;;;5.70;;
4001;SDS011;2015;48.670;9.060;2024-01-27T10:47:24;8.27;;;5.17;;
4001;SDS011;2015;48.670;9.060;2024-01-27T10:50:03;9.63;;;5.90;;
4001;SDS011;2015;48.670;9.060;2024-01-27T10:52:40;7.63;;;6.27;;
4001;SDS011;2015;48.670;9.060;2024-01-27T10:55:14;5.40;;;4.67;;
4001;SDS011;2015;48.670;9.060;2024-01-27T10:57:47;5.80;;;5.40;;
4001;SDS011;2015;48.670;9.060;2024-01-27T11:00:19;5.57;;;5.07;;
4001;SDS011;2015;48.670;9.060;2024-01-27T11:02:51;6.90;;;5.50;;
4001;SDS011;2015;48.670;9.060;2024-01-27T11:05:27;13.57;;;5.03;;
4001;SDS011;2015;48.670;9.060;2024-01-27T11:08:00;8.63;;;4.20;;
4001;SDS011;2015;48.670;9.060;2024-01-27T11:10:32;5.10;;;4.80;;
4001;SDS011;2015;48.670;9.060;2024-01-27T11:13:06;5.93;;;3.90;;
4001;SDS011;2015;48.670;9.060;2024-01-27T11:15:50;3.80;;;2.95;;
4001;SDS011;2015;48.670;9.060;2024-01-27T11:18:22;5.20;;;3.10;;
4001;SDS011;2015;48.670;9.060;2024-01-27T11:20:55;3.83;;;3.27;;
4001;SDS011;2015;48.670;9.060;2024-01-27T11:23:33;4.43;;;2.73;;
4001;SDS011;2015;48.670;9.060;2024-01-27T11:26:07;7.43;;;3.30;;
4001;SDS011;2015;48.670;9.060;2024-01-27T11:28:40;3.93;;;3.10;;
4001;SDS011;2015;48.670;9.060;2024-01-27T11:31:12;3.13;;;2.93;;
4001;SDS011;2015;48.670;9.060;2024-01-27T11:33:48;3.60;;;3.30;;
4001;SDS011;2015;48.670;9.060;2024-01-27T11:36:23;6.80;;;3.90;;
4001;SDS011;2015;48.670;9.060;2024-01-27T11:38:56;3.73;;;3.40;;
4001;SDS011;2015;48.670;9.060;2024-01-27T11:41:30;9.37;;;4.07;;
4001;SDS011;2015;48.670;9.060;2024-01-27T11:44:02;4.20;;;3.23;;
4001;SDS011;2015;48.670;9.060;2024-01-27T11:46:34;4.17;;;3.53;;
4001;SDS011;2015;48.670;9.060;2024-01-27T11:49:05;4.57;;;4.17;;
4001;SDS011;2015;48.670;9.060;2024-01-27T11:51:37;4.63;;;4.23;;
4001;SDS011;2015;48.670;9.060;2024-01-27T11:54:09;8.17;;;4.50;;
4001;SDS011;2015;48.670;9.060;2024-01-27T11:56:41;7.00;;;4.33;;
4001;SDS011;2015;48.670;9.060;2024-01-27T11:59:14;5.93;;;4.20;;
4001;SDS011;2015;48.670;9.060;2024-01-27T12:01:46;5.93;;;4.30;;
4001;SDS011;2015;48.670;9.060;2024-01-27T12:04:18;3.63;;;3.43;;
4001;SDS011;2015;48.670;9.060;2024-01-27T12:06:53;4.73;;;3.93;;
4001;SDS011;2015;48.670;9.060;2024-01-27T12:09:25;5.03;;;4.50;;
4001;SDS011;2015;48.670;9.060;2024-01-27T12:11:57;4.57;;;4.17;;
4001;SDS011;2015;48.670;9.060;2024-01-27T12:14:41;3.80;;;3.50;;
4001;SDS011;2015;48.670;9.060;2024-01-27T12:17:16;7.93;;;3.57;;
4001;SDS011;2015;48.670;9.060;2024-01-27T12:19:48;9.63;;;3.77;;
4001;SDS011;2015;48.670;9.060;2024-01-27T12:25:10;7.60;;;4.87;;
4001;SDS011;2015;48.670;9.060;2024-01-27T12:27:44;3.63;;;3.33;;
4001;SDS011;2015;48.670;9.060;2024-01-27T12:30:16;5.70;;;3.27;;
4001;SDS011;2015;48.670;9.060;2024-01-27T12:32:48;3.53;;;3.30;;
4001;SDS011;2015;48.670;9.060;2024-01-27T12:35:20;3.50;;;3.30;;
4001;SDS011;2015;48.670;9.060;2024-01-27T12:37:52;5.70;;;2.83;;
4001;SDS011;2015;48.670;9.060;2024-01-27T12:40:26;7.13;;;3.80;;
4001;SDS011;2015;48.670;9.060;2024-01-27T12:42:58;5.67;;;3.60;;
4001;SDS011;2015;48.670;9.060;2024-01-27T12:45:29;4.23;;;2.83;;
4001;SDS011;2015;48.670;9.060;2024-01-27T12:48:01;6.87;;;2.73;;
4001;SDS011;2015;48.670;9.060;2024-01-27T12:50:37;3.50;;;2.80;;
4001;SDS011;2015;48.670;9.060;2024-01-27T12:53:09;4.70;;;3.70;;
4001;SDS011;2015;48.670;9.060;2024-01-27T12:55:41;5.80;;;2.90;;
4001;SDS011;2015;48.670;9.060;2024-01-27T12:58:12;3.73;;;2.37;;
4001;SDS011;2015;48.670;9.060;2024-01-27T13:00:44;4.57;;;2.93;;
4001;SDS011;2015;48.670;9.060;2024-01-27T13:03:16;2.73;;;2.10;;
4001;SDS011;2015;48.670;9.060;2024-01-27T13:05:48;3.40;;;3.10;;
4001;SDS011;2015;48.670;9.060;2024-01-27T13:08:20;7.77;;;5.53;;
4001;SDS011;2015;48.670;9.060;2024-01-27T13:10:55;2.00;;;1.90;;
4001;SDS011;2015;48.670;9.060;2024-01-27T13:13:27;2.50;;;2.40;;
4001;SDS011;2015;48.670;9.060;2024-01-27T13:15:59;2.67;;;1.98;;
4001;SDS011;2015;48.670;9.060;2024-01-27T13:18:31;4.13;;;2.40;;
4001;SDS011;2015;48.670;9.060;2024-01-27T13:21:03;3.53;;;2.70;;
4001;SDS011;2015;48.670;9.060;2024-01-27T13:23:37;2.23;;;2.03;;
4001;SDS011;2015;48.670;9.060;2024-01-27T13:26:09;2.93;;;2.73;;
4001;SDS011;2015;48.670;9.060;2024-01-27T13:28:49;4.07;;;3.05;;
4001;SDS011;2015;48.670;9.060;2024-01-27T13:31:21;3.23;;;2.93;;
4001;SDS011;2015;48.670;9.060;2024-01-27T13:33:53;2.90;;;2.70;;
4001;SDS011;2015;48.670;9.060;2024-01-27T13:36:25;2.67;;;2.47;;
4001;SDS011;2015;48.670;9.060;2024-01-27T13:38:57;3.27;;;3.07;;
4001;SDS011;2015;48.670;9.060;2024-01-27T13:41:29;2.60;;;2.50;;
4001;SDS011;2015;48.670;9.060;2024-01-27T13:44:01;5.77;;;2.80;;
4001;SDS011;2015;48.670;9.060;2024-01-27T13:46:33;8.50;;;2.40;;
4001;SDS011;2015;48.670;9.060;2024-01-27T13:49:05;6.90;;;2.40;;
4001;SDS011;2015;48.670;9.060;2024-01-27T13:51:37;4.33;;;2.70;;
4001;SDS011;2015;48.670;9.060;2024-01-27T13:54:08;2.40;;;2.30;;
4001;SDS011;2015;48.670;9.060;2024-01-27T13:56:40;5.60;;;2.73;;
4001;SDS011;2015;48.670;9.060;2024-01-27T13:59:12;3.07;;;2.77;;
4001;SDS011;2015;48.670;9.060;2024-01-27T14:01:44;2.47;;;2.27;;
4001;SDS011;2015;48.670;9.060;2024-01-27T14:04:16;6.70;;;2.90;;
4001;SDS011;2015;48.670;9.060;2024-01-27T14:06:47;5.93;;;3.00;;
4001;SDS011;2015;48.670;9.060;2024-01-27T14:09:20;2.93;;;2.60;;
4001;SDS011;2015;48.670;9.060;2024-01-27T14:11:52;2.20;;;2.00;;
4001;SDS011;2015;48.670;9.060;2024-01-27T14:14:24;3.50;;;2.40;;
4001;SDS011;2015;48.670;9.060;2024-01-27T14:16:56;4.17;;;2.57;;
4001;SDS011;2015;48.670;9.060;2024-01-27T14:19:27;2.93;;;2.73;;
4001;SDS011;2015;48.670;9.060;2024-01-27T14:21:59;2.67;;;2.47;;
4001;SDS011;2015;48.670;9.060;2024-01-27T14:24:31;5.33;;;3.13;;
4001;SDS011;2015;48.670;9.060;2024-01-27T14:27:06;3.80;;;2.60;;
4001;SDS011;2015;48.670;9.060;2024-01-27T14:29:39;2.77;;;2.57;;
4001;SDS011;2015;48.670;9.060;2024-01-27T14:32:11;3.23;;;3.00;;
4001;SDS011;2015;48.670;9.060;2024-01-27T14:34:42;2.90;;;2.70;;
4001;SDS011;2015;48.670;9.060;2024-01-27T14:37:15;3.58;;;2.40;;
4001;SDS011;2015;48.670;9.060;2024-01-27T14:39:50;2.90;;;2.63;;
4001;SDS011;2015;48.670;9.060;2024-01-27T14:42:21;3.63;;;2.63;;
4001;SDS011;2015;48.670;9.060;2024-01-27T14:44:53;4.63;;;2.37;;
4001;SDS011;2015;48.670;9.060;2024-01-27T14:47:27;3.10;;;2.83;;
4001;SDS011;2015;48.670;9.060;2024-01-27T14:49:58;3.00;;;2.80;;
4001;SDS011;2015;48.670;9.060;2024-01-27T14:52:30;3.07;;;2.87;;
4001;SDS011;2015;48.670;9.060;2024-01-27T14:55:03;2.90;;;2.70;;
4001;SDS011;2015;48.670;9.060;2024-01-27T14:57:35;2.77;;;2.57;;
4001;SDS011;2015;48.670;9.060;2024-01-27T15:00:07;3.40;;;3.20;;
4001;SDS011;2015;48.670;9.060;2024-01-27T15:02:40;7.13;;;3.07;;
4001;SDS011;2015;48.670;9.060;2024-01-27T15:05:12;3.40;;;3.20;;
4001;SDS011;2015;48.670;9.060;2024-01-27T15:07:44;7.73;;;3.30;;
4001;SDS011;2015;48.670;9.060;2024-01-27T15:10:17;3.10;;;2.80;;
4001;SDS011;2015;48.670;9.060;2024-01-27T15:12:49;7.77;;;4.27;;
4001;SDS011;2015;48.670;9.060;2024-01-27T15:15:21;3.87;;;2.83;;
4001;SDS011;2015;48.670;9.060;2024-01-27T15:17:52;2.80;;;2.60;;
4001;SDS011;2015;48.670;9.060;2024-01-27T15:20:31;3.07;;;2.80;;
4001;SDS011;2015;48.670;9.060;2024-01-27T15:23:03;4.23;;;3.80;;
4001;SDS011;2015;48.670;9.060;2024-01-27T15:25:34;4.43;;;4.13;;
4001;SDS011;2015;48.670;9.060;2024-01-27T15:28:06;8.23;;;3.70;;
4001;SDS011;2015;48.670;9.060;2024-01-27T15:30:39;4.93;;;3.30;;
4001;SDS011;2015;48.670;9.060;2024-01-27T15:33:13;6.23;;;4.20;;
4001;SDS011;2015;48.670;9.060;2024-01-27T15:35:45;9.67;;;4.80;;
4001;SDS011;2015;48.670;9.060;2024-01-27T15:38:17;7.07;;;5.33;;
4001;SDS011;2015;48.670;9.060;2024-01-27T15:40:49;3.93;;;3.70;;
4001;SDS011;2015;48.670;9.060;2024-01-27T15:43:20;5.90;;;3.30;;
4001;SDS011;2015;48.670;9.060;2024-01-27T15:45:52;3.10;;;2.90;;